Alsville, South Dakota
Current Conditions -  °F | °C
As of 4:53 PM on Monday 22 Dec 2014 (Local Time) from KATY Reporting Station
Overcast Overcast  
Wind Chill: 36°   Ceiling: 500
Heat Index: 36°   Visibility: 7mi
Dew Point: 35°   Wind: 3mph
Humidity: 97%   Direction: 190°S
Pressure: 29.43"   Gusts: NA
Location:  44.5892°N, 97.2322°W
Report Text: KATY 222253Z AUTO 19003KT 7SM OVC005 02/02 A2943 RMK AO2 SLP980 T00220017
Loading
Personal Weather Stations






























Interactive Weather Map New forecast layout! Learn more

10-Day Weather Forecast

Advertisements
Track Severe Weather on mobile